createdAt,value
2023-04-09T00:00:21.333Z,2.43
2023-04-09T00:02:48.706Z,2.63
2023-04-09T00:05:16.446Z,1.40
2023-04-09T00:07:44.569Z,0.90
2023-04-09T00:10:12.428Z,0.90
2023-04-09T00:12:39.692Z,0.80
2023-04-09T00:15:09.629Z,0.97
2023-04-09T00:17:38.991Z,0.77
2023-04-09T00:20:08.269Z,1.13
2023-04-09T00:22:35.523Z,0.80
2023-04-09T00:25:02.744Z,2.00
2023-04-09T00:27:30.113Z,3.03
2023-04-09T00:29:57.460Z,3.50
2023-04-09T00:32:25.787Z,3.10
2023-04-09T00:34:53.350Z,4.00
2023-04-09T00:37:21.072Z,1.57
2023-04-09T00:39:48.627Z,2.37
2023-04-09T00:42:16.926Z,1.30
2023-04-09T00:44:44.417Z,0.77
2023-04-09T00:47:12.061Z,1.00
2023-04-09T00:49:39.350Z,0.80
2023-04-09T00:52:07.228Z,0.90
2023-04-09T00:54:35.032Z,1.03
2023-04-09T00:57:02.470Z,2.97
2023-04-09T00:59:29.758Z,3.23
2023-04-09T01:01:57.281Z,3.13
2023-04-09T01:04:25.045Z,12.57
2023-04-09T01:07:17.485Z,4.77
2023-04-09T01:09:52.481Z,1.23
2023-04-09T01:13:04.597Z,2.60
2023-04-09T01:15:34.574Z,4.70
2023-04-09T01:18:34.115Z,2.60
2023-04-09T01:21:03.425Z,2.83
2023-04-09T01:23:46.848Z,2.57
2023-04-09T01:26:35.667Z,2.80
2023-04-09T01:29:03.942Z,2.20
2023-04-09T01:31:33.551Z,2.90
2023-04-09T01:34:02.059Z,3.13
2023-04-09T01:36:32.465Z,3.13
2023-04-09T01:39:01.660Z,2.97
2023-04-09T01:41:29.448Z,2.90
2023-04-09T01:43:56.920Z,3.57
2023-04-09T01:46:24.260Z,3.27
2023-04-09T01:48:53.272Z,4.57
2023-04-09T01:51:20.808Z,2.50
2023-04-09T01:53:48.938Z,1.90
2023-04-09T01:56:16.198Z,1.60
2023-04-09T01:58:44.076Z,0.80
2023-04-09T02:01:15.129Z,1.00
2023-04-09T02:03:48.039Z,0.80
2023-04-09T02:06:22.129Z,2.67
2023-04-09T02:08:49.923Z,2.80
2023-04-09T02:11:17.684Z,2.53
2023-04-09T02:13:45.220Z,0.93
2023-04-09T02:16:14.217Z,0.93
2023-04-09T02:18:41.845Z,0.80
2023-04-09T02:21:09.232Z,0.80
2023-04-09T02:23:36.455Z,0.90
2023-04-09T02:26:04.112Z,1.73
2023-04-09T02:28:31.379Z,2.90
2023-04-09T02:30:58.563Z,3.07
2023-04-09T02:33:26.018Z,3.00
2023-04-09T02:35:53.355Z,3.47
2023-04-09T02:38:20.738Z,2.80
2023-04-09T02:40:48.046Z,1.80
2023-04-09T02:43:15.452Z,1.43
2023-04-09T02:45:42.962Z,0.70
2023-04-09T02:48:10.329Z,0.90
2023-04-09T02:50:37.889Z,0.70
2023-04-09T02:53:05.202Z,1.00
2023-04-09T02:55:32.464Z,2.20
2023-04-09T02:57:59.783Z,3.50
2023-04-09T03:00:26.975Z,3.47
2023-04-09T03:02:54.408Z,4.20
2023-04-09T03:05:21.846Z,3.60
2023-04-09T03:07:49.807Z,3.23
2023-04-09T03:10:17.175Z,1.80
2023-04-09T03:12:44.999Z,1.00
2023-04-09T03:15:12.573Z,1.00
2023-04-09T03:17:40.544Z,0.90
2023-04-09T03:20:08.562Z,1.10
2023-04-09T03:22:39.443Z,0.80
2023-04-09T03:25:07.364Z,0.77
2023-04-09T03:27:34.684Z,1.33
2023-04-09T03:30:02.033Z,3.17
2023-04-09T03:32:29.379Z,3.43
2023-04-09T03:34:56.611Z,3.37
2023-04-09T03:37:23.856Z,4.30
2023-04-09T03:39:51.087Z,3.30
2023-04-09T03:42:18.298Z,2.47
2023-04-09T03:44:45.684Z,1.23
2023-04-09T03:47:13.292Z,1.30
2023-04-09T03:49:40.866Z,2.57
2023-04-09T03:52:08.328Z,1.00
2023-04-09T03:54:35.703Z,3.90
2023-04-09T03:57:04.125Z,2.20
2023-04-09T03:59:31.485Z,3.13
2023-04-09T04:01:58.836Z,3.40
2023-04-09T04:04:26.440Z,3.50
2023-04-09T04:06:53.824Z,3.80
2023-04-09T04:09:21.013Z,3.00
2023-04-09T04:11:48.350Z,2.27
2023-04-09T04:14:16.193Z,1.50
2023-04-09T04:16:43.698Z,0.90
2023-04-09T04:19:11.259Z,0.97
2023-04-09T04:21:38.813Z,0.90
2023-04-09T04:24:06.384Z,0.90
2023-04-09T04:26:33.751Z,1.87
2023-04-09T04:29:01.162Z,5.90
2023-04-09T04:31:28.548Z,5.73
2023-04-09T04:33:56.106Z,3.67
2023-04-09T04:36:23.519Z,4.50
2023-04-09T04:38:50.919Z,2.90
2023-04-09T04:41:18.469Z,2.57
2023-04-09T04:43:47.580Z,2.73
2023-04-09T04:46:15.143Z,1.40
2023-04-09T04:48:42.790Z,0.90
2023-04-09T04:51:10.026Z,1.10
2023-04-09T04:53:37.245Z,1.00
2023-04-09T04:56:04.680Z,1.70
2023-04-09T04:58:32.163Z,3.13
2023-04-09T05:01:00.906Z,3.47
2023-04-09T05:03:28.220Z,4.47
2023-04-09T05:05:55.605Z,3.73
2023-04-09T05:08:22.868Z,3.43
2023-04-09T05:10:50.089Z,4.43
2023-04-09T05:13:17.633Z,1.47
2023-04-09T05:15:44.933Z,1.00
2023-04-09T05:18:12.461Z,0.90
2023-04-09T05:20:39.679Z,0.80
2023-04-09T05:23:06.965Z,0.80
2023-04-09T05:25:34.224Z,2.03
2023-04-09T05:28:01.523Z,3.83
2023-04-09T05:30:28.791Z,3.23
2023-04-09T05:32:56.234Z,3.40
2023-04-09T05:35:23.462Z,4.10
2023-04-09T05:37:50.920Z,2.50
2023-04-09T05:40:18.332Z,1.67
2023-04-09T05:42:46.310Z,1.30
2023-04-09T05:45:13.692Z,1.00
2023-04-09T05:47:41.372Z,0.90
2023-04-09T05:50:08.972Z,0.80
2023-04-09T05:52:36.194Z,0.90
2023-04-09T05:55:04.150Z,2.13
2023-04-09T05:57:32.453Z,3.13
2023-04-09T05:59:59.917Z,3.13
2023-04-09T06:02:27.255Z,3.20
2023-04-09T06:04:54.746Z,3.33
2023-04-09T06:07:22.110Z,5.43
2023-04-09T06:09:49.449Z,2.80
2023-04-09T06:12:16.848Z,2.47
2023-04-09T06:14:44.253Z,1.00
2023-04-09T06:17:11.726Z,1.00
2023-04-09T06:19:38.965Z,1.37
2023-04-09T06:22:06.834Z,0.90
2023-04-09T06:24:34.188Z,1.80
2023-04-09T06:27:01.475Z,3.37
2023-04-09T06:29:28.991Z,3.33
2023-04-09T06:31:56.121Z,3.23
2023-04-09T06:34:23.409Z,3.20
2023-04-09T06:36:50.735Z,2.40
2023-04-09T06:39:18.270Z,1.20
2023-04-09T06:41:46.779Z,3.13
2023-04-09T06:44:14.779Z,1.80
2023-04-09T06:46:42.483Z,0.83
2023-04-09T06:49:09.844Z,1.07
2023-04-09T06:51:37.087Z,0.87
2023-04-09T06:54:04.827Z,1.67
2023-04-09T06:56:31.996Z,2.70
2023-04-09T06:58:59.607Z,3.30
2023-04-09T07:01:27.229Z,2.80
2023-04-09T07:03:54.789Z,2.50
2023-04-09T07:06:22.279Z,3.43
2023-04-09T07:08:49.521Z,2.27
2023-04-09T07:11:17.414Z,1.07
2023-04-09T07:13:44.912Z,0.80
2023-04-09T07:16:12.338Z,1.23
2023-04-09T07:18:39.647Z,1.20
2023-04-09T07:21:07.342Z,0.80
2023-04-09T07:23:37.694Z,1.33
2023-04-09T07:26:06.124Z,2.00
2023-04-09T07:28:33.641Z,1.87
2023-04-09T07:31:03.266Z,2.70
2023-04-09T07:33:30.866Z,2.83
2023-04-09T07:35:58.588Z,2.70
2023-04-09T07:38:26.051Z,4.83
2023-04-09T07:40:53.362Z,3.27
2023-04-09T07:43:21.489Z,5.40
2023-04-09T07:45:51.979Z,2.00
2023-04-09T07:48:19.242Z,2.27
2023-04-09T07:50:46.563Z,1.37
2023-04-09T07:53:14.202Z,0.70
2023-04-09T07:55:42.255Z,0.70
2023-04-09T07:58:09.476Z,0.80
2023-04-09T08:00:36.871Z,0.90
2023-04-09T08:03:04.349Z,1.40
2023-04-09T08:05:31.805Z,2.80
2023-04-09T08:07:59.121Z,2.17
2023-04-09T08:10:26.322Z,2.30
2023-04-09T08:12:53.729Z,2.33
2023-04-09T08:15:21.073Z,1.83
2023-04-09T08:17:48.371Z,1.57
2023-04-09T08:20:17.359Z,2.40
2023-04-09T08:22:45.584Z,0.70
2023-04-09T08:25:13.205Z,0.83
2023-04-09T08:27:41.429Z,2.50
2023-04-09T08:30:09.949Z,1.87
2023-04-09T08:32:37.840Z,0.80
2023-04-09T08:35:05.414Z,1.00
2023-04-09T08:37:32.848Z,1.93
2023-04-09T08:40:00.193Z,3.80
2023-04-09T08:42:28.412Z,2.30
2023-04-09T08:44:55.594Z,3.57
2023-04-09T08:47:23.437Z,2.37
2023-04-09T08:49:51.281Z,1.77
2023-04-09T08:52:22.217Z,1.20
2023-04-09T08:54:51.669Z,1.70
2023-04-09T08:57:19.144Z,2.07
2023-04-09T08:59:46.959Z,0.90
2023-04-09T09:02:15.090Z,0.80
2023-04-09T09:04:49.505Z,0.80
2023-04-09T09:07:17.323Z,1.00
2023-04-09T09:09:55.878Z,0.80
2023-04-09T09:12:38.477Z,2.43
2023-04-09T09:15:25.599Z,0.70
2023-04-09T09:18:00.162Z,2.43
2023-04-09T09:20:28.030Z,2.60
2023-04-09T09:22:57.154Z,3.63
2023-04-09T09:25:26.286Z,2.67
2023-04-09T09:27:54.836Z,1.90
2023-04-09T09:30:26.967Z,2.80
2023-04-09T09:33:05.878Z,2.23
2023-04-09T09:35:49.342Z,1.73
2023-04-09T09:38:17.411Z,1.00
2023-04-09T09:40:45.596Z,0.60
2023-04-09T09:43:14.701Z,0.90
2023-04-09T09:45:44.358Z,0.67
2023-04-09T09:48:13.290Z,0.70
2023-04-09T09:50:42.686Z,0.80
2023-04-09T09:53:11.779Z,0.70
2023-04-09T09:55:41.381Z,0.80
2023-04-09T09:58:24.075Z,0.70
2023-04-09T10:00:52.581Z,2.57
2023-04-09T10:03:28.326Z,1.53
2023-04-09T10:05:55.971Z,3.40
2023-04-09T10:08:23.567Z,2.00
2023-04-09T10:10:52.730Z,3.13
2023-04-09T10:13:27.160Z,1.60
2023-04-09T10:15:54.885Z,2.10
2023-04-09T10:18:22.731Z,2.47
2023-04-09T10:21:02.424Z,1.70
2023-04-09T10:23:41.451Z,1.63
2023-04-09T10:26:09.172Z,0.60
2023-04-09T10:28:38.499Z,0.90
2023-04-09T10:31:07.061Z,0.70
2023-04-09T10:33:35.482Z,1.30
2023-04-09T10:36:08.717Z,1.63
2023-04-09T10:38:37.994Z,0.70
2023-04-09T10:41:22.597Z,0.97
2023-04-09T10:43:50.374Z,1.67
2023-04-09T10:46:31.815Z,0.90
2023-04-09T10:49:14.094Z,1.57
2023-04-09T10:51:42.547Z,1.07
2023-04-09T10:54:34.963Z,0.60
2023-04-09T10:57:08.350Z,1.43
2023-04-09T10:59:43.837Z,1.00
2023-04-09T11:02:39.580Z,0.60
2023-04-09T11:05:35.072Z,0.60
2023-04-09T11:08:06.498Z,1.57
2023-04-09T11:10:34.271Z,1.63
2023-04-09T11:13:02.850Z,1.73
2023-04-09T11:15:31.448Z,1.60
2023-04-09T11:17:59.144Z,1.57
2023-04-09T11:20:27.192Z,1.63
2023-04-09T11:22:56.437Z,1.53
2023-04-09T11:25:27.107Z,1.57
2023-04-09T11:27:54.476Z,1.37
2023-04-09T11:30:21.927Z,1.93
2023-04-09T11:32:51.682Z,1.10
2023-04-09T11:35:21.695Z,1.50
2023-04-09T11:37:50.464Z,1.33
2023-04-09T11:40:25.904Z,0.80
2023-04-09T11:42:54.593Z,1.60
2023-04-09T11:45:28.538Z,1.40
2023-04-09T11:47:55.916Z,3.43
2023-04-09T11:50:23.499Z,1.33
2023-04-09T11:52:51.262Z,0.90
2023-04-09T11:55:26.558Z,0.80
2023-04-09T11:57:57.790Z,1.70
2023-04-09T12:00:25.226Z,1.43
2023-04-09T12:03:00.481Z,1.70
2023-04-09T12:05:34.391Z,1.50
2023-04-09T12:08:08.340Z,1.57
2023-04-09T12:10:37.572Z,0.60
2023-04-09T12:13:07.519Z,0.70
2023-04-09T12:15:41.478Z,0.60
2023-04-09T12:18:10.209Z,0.60
2023-04-09T12:20:42.764Z,0.80
2023-04-09T12:23:11.529Z,1.33
2023-04-09T12:25:41.155Z,0.50
2023-04-09T12:28:11.408Z,0.60
2023-04-09T12:30:38.777Z,0.60
2023-04-09T12:33:07.622Z,0.60
2023-04-09T12:35:38.511Z,0.80
2023-04-09T12:38:06.017Z,0.70
2023-04-09T12:40:33.342Z,1.07
2023-04-09T12:43:00.612Z,1.47
2023-04-09T12:45:28.442Z,1.47
2023-04-09T12:47:55.727Z,1.53
2023-04-09T12:50:23.410Z,1.77
2023-04-09T12:52:50.760Z,1.00
2023-04-09T12:55:18.226Z,0.73
2023-04-09T12:57:47.406Z,0.70
2023-04-09T13:00:16.065Z,0.50
2023-04-09T13:02:44.016Z,0.70
2023-04-09T13:05:12.551Z,0.60
2023-04-09T13:07:41.600Z,0.83
2023-04-09T13:10:10.619Z,0.70
2023-04-09T13:12:37.986Z,0.50
2023-04-09T13:15:05.612Z,0.70
2023-04-09T13:17:32.949Z,1.10
2023-04-09T13:20:00.267Z,1.33
2023-04-09T13:22:27.563Z,1.43
2023-04-09T13:24:54.759Z,1.30
2023-04-09T13:27:22.306Z,1.20
2023-04-09T13:29:49.602Z,1.47
2023-04-09T13:32:18.507Z,0.77
2023-04-09T13:34:46.294Z,0.70
2023-04-09T13:37:13.796Z,0.60
2023-04-09T13:39:41.226Z,0.70
2023-04-09T13:42:13.579Z,0.60
2023-04-09T13:44:45.000Z,0.53
2023-04-09T13:47:13.859Z,0.70
2023-04-09T13:49:42.995Z,0.90
2023-04-09T13:52:11.011Z,0.60
2023-04-09T13:54:38.318Z,0.67
2023-04-09T13:57:05.671Z,0.70
2023-04-09T13:59:32.834Z,1.30
2023-04-09T14:02:00.441Z,1.47
2023-04-09T14:04:27.941Z,1.87
2023-04-09T14:06:55.103Z,1.53
2023-04-09T14:09:22.388Z,1.07
2023-04-09T14:11:50.059Z,2.00
2023-04-09T14:14:18.093Z,0.70
2023-04-09T14:16:45.403Z,0.70
2023-04-09T14:19:13.614Z,0.60
2023-04-09T14:21:41.450Z,0.50
2023-04-09T14:24:08.717Z,1.03
2023-04-09T14:26:36.123Z,0.80
2023-04-09T14:29:03.630Z,1.10
2023-04-09T14:31:30.984Z,1.70
2023-04-09T14:33:58.267Z,1.37
2023-04-09T14:36:27.358Z,1.40
2023-04-09T14:38:56.994Z,1.93
2023-04-09T14:41:25.123Z,1.47
2023-04-09T14:43:52.433Z,1.10
2023-04-09T14:46:20.578Z,1.13
2023-04-09T14:48:47.798Z,0.60
2023-04-09T14:51:15.175Z,0.60
2023-04-09T14:53:43.097Z,0.70
2023-04-09T14:56:10.703Z,0.50
2023-04-09T14:58:38.604Z,0.50
2023-04-09T15:01:06.176Z,0.50
2023-04-09T15:03:33.637Z,0.90
2023-04-09T15:06:01.254Z,1.13
2023-04-09T15:08:28.821Z,1.57
2023-04-09T15:10:56.083Z,1.53
2023-04-09T15:13:24.336Z,1.43
2023-04-09T15:15:51.900Z,1.07
2023-04-09T15:18:21.668Z,0.67
2023-04-09T15:20:49.470Z,0.80
2023-04-09T15:23:16.887Z,0.70
2023-04-09T15:25:44.829Z,0.60
2023-04-09T15:28:13.458Z,0.50
2023-04-09T15:30:43.301Z,0.60
2023-04-09T15:33:10.855Z,0.70
2023-04-09T15:35:38.939Z,0.60
2023-04-09T15:38:06.282Z,0.57
2023-04-09T15:40:33.811Z,0.73
2023-04-09T15:43:01.445Z,1.37
2023-04-09T15:45:28.739Z,1.17
2023-04-09T15:47:55.986Z,1.63
2023-04-09T15:50:23.669Z,1.23
2023-04-09T15:52:50.920Z,1.30
2023-04-09T15:55:18.499Z,0.77
2023-04-09T15:57:49.129Z,0.60
2023-04-09T16:00:16.818Z,0.60
2023-04-09T16:02:44.342Z,0.50
2023-04-09T16:05:11.581Z,0.83
2023-04-09T16:07:39.988Z,0.50
2023-04-09T16:10:07.649Z,0.50
2023-04-09T16:12:34.999Z,0.60
2023-04-09T16:15:02.599Z,1.13
2023-04-09T16:17:30.790Z,1.23
2023-04-09T16:19:58.197Z,1.00
2023-04-09T16:22:25.600Z,1.13
2023-04-09T16:24:52.796Z,0.90
2023-04-09T16:27:20.931Z,0.87
2023-04-09T16:29:48.799Z,0.67
2023-04-09T16:32:16.261Z,0.50
2023-04-09T16:34:43.942Z,0.50
2023-04-09T16:37:11.509Z,0.50
2023-04-09T16:39:38.970Z,0.50
2023-04-09T16:42:07.254Z,0.60
2023-04-09T16:44:34.870Z,0.80
2023-04-09T16:47:03.092Z,1.10
2023-04-09T16:49:31.708Z,1.80
2023-04-09T16:51:59.004Z,1.27
2023-04-09T16:54:26.224Z,1.60
2023-04-09T16:56:53.565Z,1.67
2023-04-09T16:59:21.422Z,1.07
2023-04-09T17:01:49.379Z,0.63
2023-04-09T17:04:16.921Z,0.77
2023-04-09T17:06:44.790Z,0.50
2023-04-09T17:09:12.760Z,0.50
2023-04-09T17:11:40.100Z,0.50
2023-04-09T17:14:07.442Z,0.60
2023-04-09T17:16:35.019Z,0.67
2023-04-09T17:19:02.911Z,1.43
2023-04-09T17:21:30.520Z,1.17
2023-04-09T17:23:58.024Z,1.37
2023-04-09T17:26:25.751Z,1.00
2023-04-09T17:28:53.218Z,1.60
2023-04-09T17:31:24.322Z,1.40
2023-04-09T17:33:52.512Z,0.93
2023-04-09T17:36:21.323Z,1.27
2023-04-09T17:38:50.069Z,0.83
2023-04-09T17:41:17.671Z,0.87
2023-04-09T17:43:45.167Z,0.50
2023-04-09T17:46:13.146Z,0.50
2023-04-09T17:48:42.002Z,0.53
2023-04-09T17:51:12.127Z,0.53
2023-04-09T17:53:39.764Z,0.50
2023-04-09T17:56:07.491Z,0.60
2023-04-09T17:58:34.780Z,2.30
2023-04-09T18:01:02.224Z,1.67
2023-04-09T18:03:30.192Z,1.83
2023-04-09T18:05:57.689Z,1.70
2023-04-09T18:08:25.313Z,1.90
2023-04-09T18:11:09.167Z,1.70
2023-04-09T18:13:38.704Z,0.70
2023-04-09T18:16:12.851Z,0.70
2023-04-09T18:18:40.245Z,0.60
2023-04-09T18:21:07.813Z,0.80
2023-04-09T18:23:35.564Z,0.80
2023-04-09T18:26:03.498Z,1.80
2023-04-09T18:28:30.840Z,1.83
2023-04-09T18:30:58.100Z,2.00
2023-04-09T18:33:26.053Z,1.73
2023-04-09T18:35:53.272Z,3.57
2023-04-09T18:38:21.463Z,2.10
2023-04-09T18:40:48.993Z,0.87
2023-04-09T18:43:16.368Z,0.67
2023-04-09T18:45:44.939Z,2.30
2023-04-09T18:48:13.493Z,0.60
2023-04-09T18:50:40.962Z,0.70
2023-04-09T18:53:08.416Z,0.90
2023-04-09T18:55:38.723Z,0.97
2023-04-09T18:58:13.054Z,0.80
2023-04-09T19:00:40.302Z,0.87
2023-04-09T19:03:07.929Z,0.73
2023-04-09T19:05:36.526Z,1.03
2023-04-09T19:08:05.804Z,1.70
2023-04-09T19:10:33.255Z,1.87
2023-04-09T19:13:00.593Z,2.60
2023-04-09T19:15:28.776Z,2.60
2023-04-09T19:17:57.088Z,3.43
2023-04-09T19:20:24.645Z,3.13
2023-04-09T19:22:56.857Z,1.37
2023-04-09T19:25:24.491Z,3.67
2023-04-09T19:27:53.874Z,1.47
2023-04-09T19:30:21.675Z,1.73
2023-04-09T19:32:49.276Z,0.80
2023-04-09T19:35:17.177Z,0.80
2023-04-09T19:37:45.368Z,0.70
2023-04-09T19:40:15.891Z,0.80
2023-04-09T19:42:43.823Z,0.67
2023-04-09T19:45:11.744Z,1.80
2023-04-09T19:47:38.992Z,0.60
2023-04-09T19:50:06.786Z,1.17
2023-04-09T19:52:34.008Z,1.53
2023-04-09T19:55:02.160Z,2.30
2023-04-09T19:57:31.964Z,2.30
2023-04-09T19:59:59.323Z,2.60
2023-04-09T20:02:27.217Z,3.53
2023-04-09T20:04:54.907Z,2.40
2023-04-09T20:07:22.125Z,1.93
2023-04-09T20:09:49.910Z,1.30
2023-04-09T20:12:17.189Z,1.10
2023-04-09T20:14:44.828Z,0.60
2023-04-09T20:17:12.798Z,0.83
2023-04-09T20:19:40.135Z,0.70
2023-04-09T20:22:07.689Z,1.20
2023-04-09T20:24:35.767Z,1.73
2023-04-09T20:27:04.028Z,2.50
2023-04-09T20:29:31.818Z,2.73
2023-04-09T20:31:59.319Z,3.00
2023-04-09T20:34:27.689Z,3.10
2023-04-09T20:36:55.890Z,2.50
2023-04-09T20:39:25.666Z,2.70
2023-04-09T20:41:54.324Z,2.97
2023-04-09T20:44:23.995Z,1.80
2023-04-09T20:46:52.350Z,1.80
2023-04-09T20:49:19.920Z,2.70
2023-04-09T20:51:48.242Z,2.50
2023-04-09T20:54:18.277Z,0.87
2023-04-09T20:56:45.793Z,0.80
2023-04-09T20:59:13.306Z,4.73
2023-04-09T21:01:40.634Z,0.60
2023-04-09T21:04:32.256Z,0.80
2023-04-09T21:06:59.871Z,2.60
2023-04-09T21:09:27.239Z,3.13
2023-04-09T21:11:54.517Z,3.47
2023-04-09T21:14:21.810Z,2.03
2023-04-09T21:16:49.399Z,1.10
2023-04-09T21:19:17.043Z,2.00
2023-04-09T21:21:44.590Z,0.70
2023-04-09T21:24:12.444Z,2.50
2023-04-09T21:26:50.892Z,0.70
2023-04-09T21:29:23.719Z,1.07
2023-04-09T21:31:51.086Z,1.97
2023-04-09T21:34:18.349Z,1.30
2023-04-09T21:36:46.672Z,0.70
2023-04-09T21:39:14.333Z,1.00
2023-04-09T21:41:41.611Z,0.80
2023-04-09T21:44:08.922Z,1.50
2023-04-09T21:46:37.450Z,1.00
2023-04-09T21:49:05.070Z,1.83
2023-04-09T21:51:33.360Z,2.60
2023-04-09T21:54:08.081Z,2.27
2023-04-09T21:56:36.496Z,1.40
2023-04-09T21:59:04.363Z,1.97
2023-04-09T22:01:34.003Z,2.60
2023-04-09T22:04:05.075Z,2.60
2023-04-09T22:06:32.620Z,2.60
2023-04-09T22:09:00.222Z,2.57
2023-04-09T22:11:29.678Z,2.30
2023-04-09T22:13:57.960Z,2.60
2023-04-09T22:16:25.987Z,2.70
2023-04-09T22:18:54.662Z,3.20
2023-04-09T22:21:22.738Z,1.53
2023-04-09T22:23:50.100Z,1.50
2023-04-09T22:26:17.394Z,1.33
2023-04-09T22:28:45.044Z,0.60
2023-04-09T22:31:12.881Z,1.10
2023-04-09T22:33:40.334Z,1.17
2023-04-09T22:36:08.498Z,2.47
2023-04-09T22:38:36.373Z,1.10
2023-04-09T22:41:03.846Z,3.90
2023-04-09T22:43:31.122Z,2.60
2023-04-09T22:45:58.491Z,2.97
2023-04-09T22:48:26.253Z,2.70
2023-04-09T22:50:53.436Z,3.23
2023-04-09T22:53:21.447Z,2.80
2023-04-09T22:55:51.363Z,1.20
2023-04-09T22:58:19.192Z,1.60
2023-04-09T23:00:47.672Z,0.77
2023-04-09T23:03:15.364Z,0.80
2023-04-09T23:05:43.265Z,0.80
2023-04-09T23:08:10.608Z,1.13
2023-04-09T23:10:37.889Z,0.70
2023-04-09T23:13:05.918Z,1.43
2023-04-09T23:15:33.203Z,4.33
2023-04-09T23:18:00.622Z,2.80
2023-04-09T23:20:28.017Z,3.53
2023-04-09T23:22:55.195Z,3.70
2023-04-09T23:25:22.815Z,1.97
2023-04-09T23:27:50.065Z,2.50
2023-04-09T23:30:18.341Z,1.20
2023-04-09T23:32:46.441Z,1.07
2023-04-09T23:35:14.967Z,0.77
2023-04-09T23:37:43.178Z,0.90
2023-04-09T23:40:11.495Z,0.80
2023-04-09T23:42:39.399Z,0.80
2023-04-09T23:45:08.036Z,0.97
2023-04-09T23:47:36.731Z,1.20
2023-04-09T23:50:07.840Z,2.17
2023-04-09T23:52:36.686Z,1.67
2023-04-09T23:55:05.445Z,3.23
2023-04-09T23:57:32.881Z,2.90
